createdAt,value
2018-12-19T00:00:27.256Z,64.12
2018-12-19T00:01:28.750Z,63.35
2018-12-19T00:02:30.268Z,59.73
2018-12-19T00:03:31.780Z,65.62
2018-12-19T00:04:33.275Z,60.75
2018-12-19T00:05:34.774Z,62.83
2018-12-19T00:06:36.249Z,58.35
2018-12-19T00:07:37.682Z,61.73
2018-12-19T00:08:39.086Z,66.45
2018-12-19T00:09:40.504Z,64.50
2018-12-19T00:10:42.052Z,60.88
2018-12-19T00:11:43.565Z,60.03
2018-12-19T00:12:45.099Z,62.45
2018-12-19T00:13:46.580Z,64.95
2018-12-19T00:14:48.061Z,66.10
2018-12-19T00:15:49.575Z,69.97
2018-12-19T00:16:51.081Z,67.90
2018-12-19T00:17:52.636Z,70.60
2018-12-19T00:18:54.112Z,68.62
2018-12-19T00:19:55.756Z,65.40
2018-12-19T00:20:57.184Z,64.37
2018-12-19T00:21:58.575Z,65.12
2018-12-19T00:23:00.014Z,64.15
2018-12-19T00:24:01.424Z,66.70
2018-12-19T00:25:02.812Z,63.50
2018-12-19T00:26:05.146Z,62.53
2018-12-19T00:27:06.690Z,62.38
2018-12-19T00:28:08.222Z,60.50
2018-12-19T00:29:09.722Z,63.60
2018-12-19T00:30:11.136Z,63.00
2018-12-19T00:31:12.522Z,65.75
2018-12-19T00:32:13.949Z,64.20
2018-12-19T00:33:15.386Z,61.33
2018-12-19T00:34:16.768Z,62.48
2018-12-19T00:35:18.145Z,64.15
2018-12-19T00:36:19.670Z,62.95
2018-12-19T00:37:22.144Z,64.90
2018-12-19T00:38:23.818Z,62.53
2018-12-19T00:39:25.236Z,61.08
2018-12-19T00:40:26.709Z,63.55
2018-12-19T00:41:28.208Z,62.40
2018-12-19T00:42:29.698Z,56.28
2018-12-19T00:43:31.356Z,59.83
2018-12-19T00:44:33.102Z,59.18
2018-12-19T00:45:34.604Z,59.70
2018-12-19T00:46:36.145Z,61.75
2018-12-19T00:47:37.677Z,61.63
2018-12-19T00:48:39.288Z,63.15
2018-12-19T00:49:40.771Z,61.42
2018-12-19T00:50:42.306Z,60.40
2018-12-19T00:51:43.960Z,66.20
2018-12-19T00:52:45.506Z,62.15
2018-12-19T00:53:46.937Z,63.23
2018-12-19T00:54:48.430Z,61.90
2018-12-19T00:55:49.905Z,65.67
2018-12-19T00:56:51.373Z,62.08
2018-12-19T00:57:52.881Z,67.67
2018-12-19T00:58:54.317Z,61.18
2018-12-19T00:59:55.716Z,67.45
2018-12-19T01:00:57.131Z,59.42
2018-12-19T01:01:58.549Z,63.95
2018-12-19T01:03:00.011Z,61.50
2018-12-19T01:04:01.447Z,62.03
2018-12-19T01:05:02.825Z,62.55
2018-12-19T01:06:04.540Z,60.08
2018-12-19T01:07:06.039Z,63.90
2018-12-19T01:08:07.550Z,67.53
2018-12-19T01:09:09.011Z,63.68
2018-12-19T01:10:10.442Z,65.40
2018-12-19T01:11:11.842Z,67.40
2018-12-19T01:12:13.289Z,64.72
2018-12-19T01:13:14.723Z,64.90
2018-12-19T01:14:16.403Z,62.43
2018-12-19T01:15:17.899Z,62.73
2018-12-19T01:16:19.399Z,65.72
2018-12-19T01:17:20.916Z,64.55
2018-12-19T01:18:22.367Z,63.40
2018-12-19T01:19:23.921Z,64.62
2018-12-19T01:20:25.483Z,63.23
2018-12-19T01:21:26.988Z,63.90
2018-12-19T01:22:28.628Z,63.70
2018-12-19T01:23:30.112Z,65.52
2018-12-19T01:24:31.624Z,64.27
2018-12-19T01:25:33.025Z,65.40
2018-12-19T01:26:34.409Z,65.20
2018-12-19T01:27:35.817Z,63.65
2018-12-19T01:28:37.212Z,67.50
2018-12-19T01:29:38.624Z,65.28
2018-12-19T01:30:45.929Z,67.58
2018-12-19T01:31:47.309Z,65.83
2018-12-19T01:32:48.692Z,71.30
2018-12-19T01:33:50.089Z,66.62
2018-12-19T01:34:51.537Z,63.52
2018-12-19T01:35:52.936Z,66.42
2018-12-19T01:36:54.313Z,69.50
2018-12-19T01:37:55.690Z,63.90
2018-12-19T01:38:57.086Z,61.70
2018-12-19T01:39:58.625Z,63.02
2018-12-19T01:41:00.091Z,65.83
2018-12-19T01:42:01.587Z,65.37
2018-12-19T01:43:03.068Z,64.40
2018-12-19T01:44:04.560Z,70.72
2018-12-19T01:45:06.075Z,65.85
2018-12-19T01:46:07.589Z,71.55
2018-12-19T01:47:09.199Z,71.35
2018-12-19T01:48:10.696Z,69.27
2018-12-19T01:49:12.208Z,68.57
2018-12-19T01:50:13.648Z,67.30
2018-12-19T01:51:15.023Z,66.53
2018-12-19T01:52:16.396Z,68.28
2018-12-19T01:53:17.805Z,67.25
2018-12-19T01:54:19.192Z,63.80
2018-12-19T01:55:20.668Z,65.75
2018-12-19T01:56:22.061Z,65.87
2018-12-19T01:57:23.448Z,65.65
2018-12-19T01:58:24.821Z,65.35
2018-12-19T01:59:27.457Z,63.15
2018-12-19T02:00:28.996Z,68.05
2018-12-19T02:01:30.614Z,64.75
2018-12-19T02:02:32.005Z,65.97
2018-12-19T02:03:34.489Z,66.72
2018-12-19T02:04:36.006Z,67.35
2018-12-19T02:05:37.544Z,65.00
2018-12-19T02:06:40.055Z,65.00
2018-12-19T02:07:41.537Z,67.62
2018-12-19T02:08:43.181Z,67.25
2018-12-19T02:09:44.568Z,65.67
2018-12-19T02:10:46.120Z,63.83
2018-12-19T02:11:47.637Z,65.83
2018-12-19T02:12:49.104Z,66.47
2018-12-19T02:13:50.608Z,69.17
2018-12-19T02:14:52.124Z,65.47
2018-12-19T02:15:53.786Z,63.95
2018-12-19T02:16:55.274Z,65.67
2018-12-19T02:17:56.761Z,64.75
2018-12-19T02:18:58.232Z,65.28
2018-12-19T02:19:59.597Z,64.15
2018-12-19T02:21:01.043Z,64.92
2018-12-19T02:22:02.441Z,68.83
2018-12-19T02:23:03.834Z,66.55
2018-12-19T02:24:05.217Z,64.42
2018-12-19T02:25:06.649Z,65.37
2018-12-19T02:26:08.157Z,68.92
2018-12-19T02:27:09.520Z,67.27
2018-12-19T02:28:10.909Z,69.25
2018-12-19T02:29:12.308Z,67.92
2018-12-19T02:30:13.685Z,69.22
2018-12-19T02:31:15.296Z,68.25
2018-12-19T02:32:16.672Z,67.50
2018-12-19T02:33:18.052Z,70.75
2018-12-19T02:34:19.441Z,70.45
2018-12-19T02:35:20.817Z,67.35
2018-12-19T02:36:22.394Z,67.42
2018-12-19T02:37:23.860Z,67.70
2018-12-19T02:38:25.429Z,66.35
2018-12-19T02:39:26.918Z,70.42
2018-12-19T02:40:28.300Z,69.40
2018-12-19T02:41:29.729Z,70.50
2018-12-19T02:42:31.126Z,68.92
2018-12-19T02:43:32.510Z,67.53
2018-12-19T02:44:33.950Z,66.15
2018-12-19T02:45:35.350Z,68.90
2018-12-19T02:46:36.776Z,71.42
2018-12-19T02:47:38.382Z,69.85
2018-12-19T02:48:39.880Z,71.00
2018-12-19T02:49:41.405Z,72.05
2018-12-19T02:50:42.922Z,63.55
2018-12-19T02:51:44.617Z,70.47
2018-12-19T02:52:46.098Z,66.70
2018-12-19T02:53:47.602Z,69.45
2018-12-19T02:54:49.183Z,70.65
2018-12-19T02:55:50.688Z,71.15
2018-12-19T02:56:52.218Z,64.60
2018-12-19T02:57:53.707Z,69.67
2018-12-19T02:58:55.194Z,71.15
2018-12-19T02:59:56.661Z,68.70
2018-12-19T03:00:58.216Z,71.00
2018-12-19T03:01:59.785Z,69.32
2018-12-19T03:03:01.307Z,68.05
2018-12-19T03:04:02.876Z,67.70
2018-12-19T03:05:04.269Z,68.22
2018-12-19T03:06:05.743Z,71.35
2018-12-19T03:07:07.277Z,70.52
2018-12-19T03:08:08.776Z,67.62
2018-12-19T03:09:10.275Z,69.47
2018-12-19T03:10:11.790Z,64.82
2018-12-19T03:11:13.262Z,70.20
2018-12-19T03:12:14.658Z,62.30
2018-12-19T03:13:16.062Z,65.60
2018-12-19T03:14:17.528Z,70.03
2018-12-19T03:15:18.928Z,64.45
2018-12-19T03:16:20.554Z,69.87
2018-12-19T03:17:22.085Z,65.70
2018-12-19T03:18:23.623Z,64.75
2018-12-19T03:19:25.131Z,66.57
2018-12-19T03:20:26.649Z,65.08
2018-12-19T03:21:28.145Z,66.60
2018-12-19T03:22:29.823Z,66.75
2018-12-19T03:23:31.346Z,68.50
2018-12-19T03:24:32.830Z,65.83
2018-12-19T03:25:34.196Z,70.60
2018-12-19T03:26:35.581Z,64.42
2018-12-19T03:27:39.190Z,68.15
2018-12-19T03:28:40.600Z,67.20
2018-12-19T03:29:42.131Z,69.87
2018-12-19T03:30:43.622Z,68.62
2018-12-19T03:31:45.086Z,67.60
2018-12-19T03:32:46.626Z,63.13
2018-12-19T03:33:48.008Z,72.87
2018-12-19T03:34:49.396Z,67.87
2018-12-19T03:35:50.901Z,66.50
2018-12-19T03:36:52.429Z,66.30
2018-12-19T03:37:53.946Z,66.17
2018-12-19T03:38:55.440Z,66.22
2018-12-19T03:39:56.860Z,68.65
2018-12-19T03:40:58.212Z,70.15
2018-12-19T03:41:59.637Z,67.35
2018-12-19T03:43:01.028Z,69.53
2018-12-19T03:44:02.437Z,64.30
2018-12-19T03:45:03.842Z,65.75
2018-12-19T03:46:05.255Z,65.50
2018-12-19T03:47:06.688Z,66.30
2018-12-19T03:48:08.053Z,66.82
2018-12-19T03:49:09.437Z,67.10
2018-12-19T03:50:10.814Z,67.85
2018-12-19T03:51:12.185Z,68.90
2018-12-19T03:52:13.605Z,66.17
2018-12-19T03:53:15.903Z,69.95
2018-12-19T03:54:17.505Z,64.85
2018-12-19T03:55:19.050Z,66.12
2018-12-19T03:56:20.525Z,71.57
2018-12-19T03:57:22.029Z,66.15
2018-12-19T03:58:23.498Z,65.45
2018-12-19T03:59:24.905Z,64.53
2018-12-19T04:00:26.285Z,64.20
2018-12-19T04:01:27.666Z,63.05
2018-12-19T04:02:29.153Z,64.80
2018-12-19T04:03:30.520Z,66.45
2018-12-19T04:04:31.912Z,61.53
2018-12-19T04:05:33.295Z,65.25
2018-12-19T04:06:34.777Z,66.33
2018-12-19T04:07:36.187Z,63.30
2018-12-19T04:08:37.710Z,67.25
2018-12-19T04:09:39.184Z,65.03
2018-12-19T04:10:40.658Z,63.95
2018-12-19T04:11:42.146Z,65.37
2018-12-19T04:12:43.621Z,64.85
2018-12-19T04:13:44.993Z,62.35
2018-12-19T04:14:46.368Z,64.45
2018-12-19T04:15:47.732Z,62.38
2018-12-19T04:16:49.099Z,60.80
2018-12-19T04:17:50.579Z,62.27
2018-12-19T04:18:51.989Z,62.50
2018-12-19T04:19:53.397Z,64.67
2018-12-19T04:20:54.781Z,65.65
2018-12-19T04:21:56.186Z,61.73
2018-12-19T04:22:57.724Z,62.40
2018-12-19T04:23:59.250Z,61.95
2018-12-19T04:25:00.950Z,62.60
2018-12-19T04:26:02.460Z,63.35
2018-12-19T04:27:03.970Z,60.17
2018-12-19T04:28:05.720Z,64.42
2018-12-19T04:29:07.185Z,62.10
2018-12-19T04:30:08.694Z,63.33
2018-12-19T04:31:10.194Z,58.52
2018-12-19T04:32:11.705Z,63.08
2018-12-19T04:33:13.297Z,62.20
2018-12-19T04:34:14.793Z,61.77
2018-12-19T04:35:16.209Z,61.10
2018-12-19T04:36:17.645Z,60.15
2018-12-19T04:37:19.069Z,64.42
2018-12-19T04:38:20.504Z,62.58
2018-12-19T04:39:21.902Z,61.98
2018-12-19T04:40:23.342Z,59.85
2018-12-19T04:41:25.758Z,60.17
2018-12-19T04:42:27.120Z,58.30
2018-12-19T04:43:28.631Z,60.15
2018-12-19T04:44:30.158Z,58.35
2018-12-19T04:45:31.537Z,62.98
2018-12-19T04:46:32.931Z,60.63
2018-12-19T04:47:34.306Z,60.05
2018-12-19T04:48:35.721Z,63.70
2018-12-19T04:49:37.114Z,64.92
2018-12-19T04:50:38.497Z,63.30
2018-12-19T04:51:39.857Z,58.85
2018-12-19T04:52:41.269Z,57.77
2018-12-19T04:53:42.756Z,61.68
2018-12-19T04:54:44.140Z,62.08
2018-12-19T04:55:45.548Z,62.40
2018-12-19T04:56:46.940Z,58.40
2018-12-19T04:57:48.318Z,59.03
2018-12-19T04:58:49.761Z,60.07
2018-12-19T04:59:51.152Z,58.73
2018-12-19T05:00:52.511Z,63.35
2018-12-19T05:01:53.929Z,62.17
2018-12-19T05:02:55.300Z,65.42
2018-12-19T05:03:56.719Z,61.02
2018-12-19T05:04:58.092Z,60.70
2018-12-19T05:05:59.481Z,60.98
2018-12-19T05:07:00.858Z,67.32
2018-12-19T05:08:02.242Z,64.75
2018-12-19T05:09:03.689Z,58.87
2018-12-19T05:10:12.091Z,58.70
2018-12-19T05:11:08.490Z,61.73
2018-12-19T05:12:09.873Z,58.08
2018-12-19T05:13:11.278Z,58.70
2018-12-19T05:14:12.707Z,55.08
2018-12-19T05:15:14.069Z,59.55
2018-12-19T05:16:15.437Z,57.60
2018-12-19T05:17:16.917Z,62.00
2018-12-19T05:18:18.293Z,55.25
2018-12-19T05:19:19.701Z,57.78
2018-12-19T05:20:21.158Z,58.05
2018-12-19T05:21:22.521Z,62.53
2018-12-19T05:22:23.953Z,62.38
2018-12-19T05:23:25.356Z,58.92
2018-12-19T05:24:26.777Z,60.75
2018-12-19T05:25:28.135Z,62.05
2018-12-19T05:26:29.539Z,61.30
2018-12-19T05:27:30.926Z,62.62
2018-12-19T05:28:32.293Z,66.90
2018-12-19T05:29:33.702Z,60.73
2018-12-19T05:30:35.087Z,59.90
2018-12-19T05:31:36.491Z,59.33
2018-12-19T05:32:38.095Z,59.73
2018-12-19T05:33:39.488Z,59.42
2018-12-19T05:34:40.948Z,62.77
2018-12-19T05:35:42.397Z,67.80
2018-12-19T05:36:43.936Z,61.53
2018-12-19T05:37:45.342Z,57.65
2018-12-19T05:38:46.787Z,61.68
2018-12-19T05:39:48.321Z,55.00
2018-12-19T05:40:49.779Z,61.92
2018-12-19T05:42:57.917Z,62.20
2018-12-19T05:43:59.292Z,62.80
2018-12-19T05:45:00.745Z,61.92
2018-12-19T05:46:02.168Z,58.08
2018-12-19T05:47:03.561Z,58.95
2018-12-19T05:48:04.975Z,55.80
2018-12-19T05:49:06.504Z,57.45
2018-12-19T05:50:07.978Z,58.68
2018-12-19T05:51:09.408Z,56.63
2018-12-19T05:52:10.757Z,61.50
2018-12-19T05:53:12.125Z,60.83
2018-12-19T05:54:13.494Z,57.05
2018-12-19T05:55:14.957Z,57.80
2018-12-19T05:56:16.369Z,57.35
2018-12-19T05:57:17.764Z,59.85
2018-12-19T05:58:19.137Z,62.10
2018-12-19T05:59:20.558Z,59.00
2018-12-19T06:00:21.981Z,63.92
2018-12-19T06:01:23.411Z,61.50
2018-12-19T06:02:24.808Z,64.17
2018-12-19T06:03:26.181Z,62.00
2018-12-19T06:04:27.584Z,61.63
2018-12-19T06:05:29.022Z,58.35
2018-12-19T06:06:30.379Z,61.08
2018-12-19T06:07:31.789Z,61.33
2018-12-19T06:08:33.216Z,58.85
2018-12-19T06:09:34.589Z,61.30
2018-12-19T06:10:36.053Z,56.70
2018-12-19T06:11:37.407Z,59.27
2018-12-19T06:12:38.805Z,59.42
2018-12-19T06:13:40.191Z,62.73
2018-12-19T06:14:41.573Z,60.40
2018-12-19T06:15:43.021Z,54.00
2018-12-19T06:16:44.377Z,57.40
2018-12-19T06:18:52.336Z,60.35
2018-12-19T06:19:53.712Z,56.73
2018-12-19T06:20:55.154Z,61.68
2018-12-19T06:21:56.530Z,59.93
2018-12-19T06:22:57.886Z,58.63
2018-12-19T06:23:59.249Z,63.58
2018-12-19T06:25:00.712Z,60.92
2018-12-19T06:26:02.135Z,64.50
2018-12-19T06:27:03.597Z,59.98
2018-12-19T06:28:04.992Z,62.62
2018-12-19T06:29:06.370Z,62.03
2018-12-19T06:30:07.748Z,59.50
2018-12-19T06:31:09.287Z,60.12
2018-12-19T06:32:10.817Z,59.23
2018-12-19T06:33:12.208Z,62.80
2018-12-19T06:34:13.569Z,64.12
2018-12-19T06:35:14.941Z,64.47
2018-12-19T06:36:16.370Z,65.30
2018-12-19T06:37:17.770Z,63.78
2018-12-19T06:38:19.150Z,61.25
2018-12-19T06:39:20.520Z,63.33
2018-12-19T06:40:22.033Z,61.58
2018-12-19T06:41:23.489Z,63.60
2018-12-19T06:42:24.898Z,66.10
2018-12-19T06:43:26.277Z,64.10
2018-12-19T06:44:27.693Z,59.83
2018-12-19T06:45:29.186Z,61.73
2018-12-19T06:46:30.605Z,60.43
2018-12-19T06:48:38.412Z,60.73
2018-12-19T06:49:39.896Z,61.63
2018-12-19T06:50:41.298Z,57.73
2018-12-19T06:51:42.689Z,59.45
2018-12-19T06:52:44.128Z,64.75
2018-12-19T06:53:45.650Z,63.52
2018-12-19T06:54:47.069Z,67.72
2018-12-19T06:55:48.478Z,61.77
2018-12-19T06:56:49.948Z,60.35
2018-12-19T06:57:51.358Z,62.30
2018-12-19T06:58:52.769Z,68.20
2018-12-19T06:59:54.185Z,64.17
2018-12-19T07:00:55.599Z,64.90
2018-12-19T07:01:57.105Z,65.32
2018-12-19T07:04:06.180Z,66.47
2018-12-19T07:05:07.651Z,72.03
2018-12-19T07:06:09.034Z,80.15
2018-12-19T07:07:10.476Z,75.37
2018-12-19T07:08:11.896Z,66.85
2018-12-19T07:09:13.301Z,65.28
2018-12-19T07:10:14.781Z,70.78
2018-12-19T07:11:16.257Z,61.80
2018-12-19T07:12:17.669Z,66.10
2018-12-19T07:13:19.101Z,63.48
2018-12-19T07:14:20.540Z,65.45
2018-12-19T07:15:21.939Z,61.88
2018-12-19T07:16:23.332Z,62.73
2018-12-19T07:17:24.781Z,63.25
2018-12-19T07:18:26.173Z,66.22
2018-12-19T07:19:27.579Z,66.17
2018-12-19T07:20:29.022Z,65.72
2018-12-19T07:21:30.511Z,68.45
2018-12-19T07:22:31.966Z,69.03
2018-12-19T07:23:33.366Z,69.05
2018-12-19T07:24:34.840Z,67.82
2018-12-19T07:25:36.241Z,66.42
2018-12-19T07:26:37.641Z,63.68
2018-12-19T07:27:39.098Z,65.62
2018-12-19T07:28:40.561Z,65.20
2018-12-19T07:29:42.008Z,68.78
2018-12-19T07:30:43.424Z,65.67
2018-12-19T07:31:44.888Z,67.10
2018-12-19T07:32:46.327Z,67.97
2018-12-19T07:33:47.708Z,62.75
2018-12-19T07:34:49.148Z,61.30
2018-12-19T07:35:50.558Z,64.03
2018-12-19T07:36:51.955Z,64.87
2018-12-19T07:37:53.416Z,62.45
2018-12-19T07:38:54.947Z,66.07
2018-12-19T07:39:56.416Z,67.20
2018-12-19T07:40:57.982Z,65.22
2018-12-19T07:41:59.418Z,64.55
2018-12-19T07:43:00.865Z,63.25
2018-12-19T07:44:06.011Z,61.60
2018-12-19T07:45:07.412Z,58.28
2018-12-19T07:46:08.821Z,63.15
2018-12-19T07:47:10.257Z,65.15
2018-12-19T07:48:11.703Z,60.40
2018-12-19T07:49:13.141Z,63.40
2018-12-19T07:50:14.553Z,62.75
2018-12-19T07:51:15.980Z,60.43
2018-12-19T07:52:17.421Z,60.80
2018-12-19T07:53:18.866Z,60.83
2018-12-19T07:54:20.299Z,59.23
2018-12-19T07:55:21.696Z,59.45
2018-12-19T07:56:23.079Z,61.50
2018-12-19T07:57:24.557Z,59.05
2018-12-19T07:58:26.025Z,59.58
2018-12-19T07:59:27.461Z,62.40
2018-12-19T08:00:28.864Z,65.10
2018-12-19T08:01:30.314Z,68.17
2018-12-19T08:02:31.786Z,67.05
2018-12-19T08:03:33.180Z,60.33
2018-12-19T08:04:34.633Z,59.15
2018-12-19T08:05:36.018Z,60.15
2018-12-19T08:06:37.447Z,64.37
2018-12-19T08:07:38.991Z,64.22
2018-12-19T08:08:40.405Z,64.55
2018-12-19T08:09:41.849Z,66.00
2018-12-19T08:10:43.276Z,64.20
2018-12-19T08:11:44.655Z,62.20
2018-12-19T08:12:46.141Z,64.32
2018-12-19T08:13:47.547Z,65.60
2018-12-19T08:14:48.971Z,62.88
2018-12-19T08:15:50.390Z,62.95
2018-12-19T08:16:51.783Z,65.67
2018-12-19T08:17:53.305Z,63.15
2018-12-19T08:18:54.773Z,62.98
2018-12-19T08:19:56.166Z,61.55
2018-12-19T08:20:57.593Z,59.98
2018-12-19T08:21:58.992Z,64.87
2018-12-19T08:23:00.430Z,62.78
2018-12-19T08:24:01.840Z,66.57
2018-12-19T08:25:03.220Z,64.07
2018-12-19T08:26:04.691Z,65.22
2018-12-19T08:27:06.098Z,62.55
2018-12-19T08:28:07.601Z,67.62
2018-12-19T08:29:09.043Z,63.40
2018-12-19T08:30:10.498Z,63.30
2018-12-19T08:31:11.918Z,65.05
2018-12-19T08:32:13.332Z,62.08
2018-12-19T08:33:14.780Z,64.05
2018-12-19T08:34:16.178Z,61.13
2018-12-19T08:35:17.641Z,59.18
2018-12-19T08:36:19.039Z,61.23
2018-12-19T08:37:20.446Z,60.40
2018-12-19T08:38:21.972Z,59.38
2018-12-19T08:39:23.365Z,62.95
2018-12-19T08:40:25.287Z,62.58
2018-12-19T08:41:26.716Z,61.53
2018-12-19T08:42:28.136Z,60.78
2018-12-19T08:43:29.626Z,56.92
2018-12-19T08:44:31.011Z,60.65
2018-12-19T08:45:32.439Z,60.73
2018-12-19T08:46:33.878Z,59.63
2018-12-19T08:47:35.288Z,60.73
2018-12-19T08:48:36.737Z,62.98
2018-12-19T08:49:38.150Z,61.02
2018-12-19T08:50:39.649Z,59.30
2018-12-19T08:51:41.249Z,60.65
2018-12-19T08:52:42.652Z,58.28
2018-12-19T08:53:44.175Z,61.02
2018-12-19T08:54:45.612Z,57.20
2018-12-19T08:55:47.017Z,58.80
2018-12-19T08:56:48.465Z,62.55
2018-12-19T08:57:49.857Z,63.63
2018-12-19T08:58:51.391Z,57.73
2018-12-19T08:59:52.961Z,62.67
2018-12-19T09:00:54.387Z,64.17
2018-12-19T09:01:55.841Z,60.45
2018-12-19T09:02:57.287Z,58.65
2018-12-19T09:03:58.780Z,61.42
2018-12-19T09:05:00.173Z,63.28
2018-12-19T09:06:01.639Z,63.02
2018-12-19T09:07:03.064Z,60.58
2018-12-19T09:08:04.509Z,56.02
2018-12-19T09:09:05.990Z,59.15
2018-12-19T09:10:07.389Z,60.75
2018-12-19T09:11:08.801Z,57.90
2018-12-19T09:12:10.218Z,61.48
2018-12-19T09:13:11.703Z,62.48
2018-12-19T09:14:13.190Z,63.20
2018-12-19T09:15:14.621Z,62.83
2018-12-19T09:16:16.035Z,60.63
2018-12-19T09:17:17.455Z,63.70
2018-12-19T09:18:18.850Z,60.30
2018-12-19T09:19:20.286Z,59.95
2018-12-19T09:20:21.707Z,57.62
2018-12-19T09:21:23.138Z,62.50
2018-12-19T09:22:24.580Z,58.73
2018-12-19T09:23:25.979Z,60.50
2018-12-19T09:24:27.460Z,56.42
2018-12-19T09:25:28.876Z,59.55
2018-12-19T09:26:30.229Z,58.28
2018-12-19T09:27:31.635Z,60.28
2018-12-19T09:28:33.068Z,58.78
2018-12-19T09:29:34.602Z,59.60
2018-12-19T09:30:35.989Z,58.50
2018-12-19T09:31:37.394Z,59.05
2018-12-19T09:32:38.790Z,58.52
2018-12-19T09:33:40.196Z,58.40
2018-12-19T09:34:41.640Z,57.98
2018-12-19T09:35:43.021Z,57.83
2018-12-19T09:36:44.459Z,57.17
2018-12-19T09:37:46.146Z,57.83
2018-12-19T09:38:47.582Z,54.48
2018-12-19T09:39:49.077Z,53.98
2018-12-19T09:40:50.507Z,59.13
2018-12-19T09:41:51.876Z,55.90
2018-12-19T09:42:53.301Z,57.15
2018-12-19T09:43:54.689Z,53.50
2018-12-19T09:44:56.177Z,54.75
2018-12-19T09:45:57.579Z,54.73
2018-12-19T09:46:59.147Z,54.15
2018-12-19T09:48:00.547Z,59.38
2018-12-19T09:49:02.049Z,56.05
2018-12-19T09:50:03.538Z,51.98
2018-12-19T09:51:04.937Z,53.50
2018-12-19T09:52:06.377Z,56.02
2018-12-19T09:53:07.887Z,58.48
2018-12-19T09:54:09.338Z,55.58
2018-12-19T09:55:10.789Z,52.05
2018-12-19T09:56:12.208Z,51.80
2018-12-19T09:57:13.587Z,53.23
2018-12-19T09:58:15.024Z,54.35
2018-12-19T09:59:16.477Z,52.13
2018-12-19T10:00:17.920Z,55.98
2018-12-19T10:01:19.357Z,55.45
2018-12-19T10:02:20.737Z,54.30
2018-12-19T10:03:22.128Z,55.73
2018-12-19T10:04:23.525Z,55.23
2018-12-19T10:05:25.029Z,56.05
2018-12-19T10:06:26.432Z,55.88
2018-12-19T10:07:27.831Z,56.45
2018-12-19T10:08:29.315Z,54.35
2018-12-19T10:09:31.110Z,53.50
2018-12-19T10:10:32.610Z,51.80
2018-12-19T10:11:34.026Z,53.02
2018-12-19T10:12:35.432Z,53.80
2018-12-19T10:13:36.821Z,56.05
2018-12-19T10:14:38.295Z,53.08
2018-12-19T10:15:39.857Z,53.10
2018-12-19T10:16:41.290Z,54.45
2018-12-19T10:17:42.715Z,51.83
2018-12-19T10:18:44.155Z,54.38
2018-12-19T10:19:45.558Z,51.42
2018-12-19T10:20:47.057Z,51.25
2018-12-19T10:22:55.202Z,50.35
2018-12-19T10:23:56.644Z,50.95
2018-12-19T10:24:58.065Z,51.37
2018-12-19T10:25:59.549Z,50.12
2018-12-19T10:27:00.980Z,51.35
2018-12-19T10:28:02.454Z,51.85
2018-12-19T10:29:03.840Z,50.20
2018-12-19T10:30:05.327Z,51.77
2018-12-19T10:31:06.759Z,51.13
2018-12-19T10:32:08.145Z,51.92
2018-12-19T10:33:09.686Z,53.68
2018-12-19T10:34:11.069Z,53.10
2018-12-19T10:35:12.524Z,52.03
2018-12-19T10:36:13.971Z,52.05
2018-12-19T10:37:15.434Z,50.20
2018-12-19T10:38:16.904Z,51.73
2018-12-19T10:39:18.343Z,51.53
2018-12-19T10:40:19.797Z,48.58
2018-12-19T10:41:25.444Z,50.58
2018-12-19T10:42:24.942Z,50.28
2018-12-19T10:43:26.355Z,48.80
2018-12-19T10:44:27.762Z,50.10
2018-12-19T10:45:29.206Z,47.88
2018-12-19T10:46:30.763Z,49.00
2018-12-19T10:47:32.186Z,49.77
2018-12-19T10:48:33.556Z,49.48
2018-12-19T10:49:35.018Z,45.52
2018-12-19T10:50:36.586Z,45.20
2018-12-19T10:51:38.106Z,45.67
2018-12-19T10:52:39.711Z,43.73
2018-12-19T10:53:41.119Z,44.10
2018-12-19T10:54:42.524Z,45.73
2018-12-19T10:55:43.914Z,45.15
2018-12-19T10:56:45.321Z,42.30
2018-12-19T10:57:46.707Z,43.70
2018-12-19T10:58:48.224Z,43.02
2018-12-19T10:59:49.671Z,43.13
2018-12-19T11:00:51.110Z,42.83
2018-12-19T11:01:52.618Z,40.08
2018-12-19T11:02:54.090Z,39.85
2018-12-19T11:03:55.586Z,41.08
2018-12-19T11:04:57.018Z,40.65
2018-12-19T11:05:58.474Z,41.23
2018-12-19T11:06:59.948Z,41.60
2018-12-19T11:08:01.409Z,44.73
2018-12-19T11:09:02.855Z,45.33
2018-12-19T11:10:04.338Z,40.98
2018-12-19T11:11:05.813Z,42.93
2018-12-19T11:12:07.420Z,44.60
2018-12-19T11:13:08.884Z,42.60
2018-12-19T11:14:10.377Z,38.73
2018-12-19T11:15:11.808Z,40.95
2018-12-19T11:16:13.286Z,40.20
2018-12-19T11:17:14.730Z,42.03
2018-12-19T11:18:16.136Z,40.90
2018-12-19T11:19:17.523Z,39.58
2018-12-19T11:20:18.955Z,35.95
2018-12-19T11:21:20.345Z,35.58
2018-12-19T11:22:21.820Z,35.25
2018-12-19T11:23:23.273Z,36.40
2018-12-19T11:24:24.670Z,36.65
2018-12-19T11:25:26.079Z,39.05
2018-12-19T11:26:27.559Z,37.30
2018-12-19T11:27:29.084Z,34.27
2018-12-19T11:28:30.584Z,36.63
2018-12-19T11:29:31.969Z,33.88
2018-12-19T11:30:33.373Z,33.98
2018-12-19T11:31:34.787Z,35.63
2018-12-19T11:32:36.267Z,34.38
2018-12-19T11:33:37.707Z,34.33
2018-12-19T11:34:39.118Z,32.95
2018-12-19T11:35:40.542Z,35.20
2018-12-19T11:36:42.000Z,32.73
2018-12-19T11:37:43.534Z,34.48
2018-12-19T11:38:44.954Z,31.23
2018-12-19T11:39:46.425Z,33.28
2018-12-19T11:40:47.824Z,30.80
2018-12-19T11:41:49.247Z,28.92
2018-12-19T11:42:50.739Z,30.55
2018-12-19T11:43:52.191Z,29.85
2018-12-19T11:44:53.616Z,28.73
2018-12-19T11:45:55.191Z,30.75
2018-12-19T11:46:56.629Z,31.27
2018-12-19T11:47:58.186Z,30.23
2018-12-19T11:48:59.771Z,29.50
2018-12-19T11:50:01.217Z,31.85
2018-12-19T11:51:02.637Z,26.73
2018-12-19T11:52:04.073Z,28.15
2018-12-19T11:53:05.591Z,26.87
2018-12-19T11:54:07.001Z,28.23
2018-12-19T11:55:08.429Z,29.18
2018-12-19T11:56:09.867Z,28.90
2018-12-19T11:57:11.320Z,33.13
2018-12-19T11:58:12.807Z,31.17
2018-12-19T11:59:14.264Z,29.55
2018-12-19T12:00:15.681Z,30.55
2018-12-19T12:01:17.116Z,32.75
2018-12-19T12:02:18.540Z,32.05
2018-12-19T12:03:19.939Z,31.73
2018-12-19T12:04:21.350Z,30.82
2018-12-19T12:05:22.827Z,31.68
2018-12-19T12:06:24.206Z,30.52
2018-12-19T12:07:25.633Z,31.60
2018-12-19T12:08:27.101Z,31.57
2018-12-19T12:09:28.538Z,27.70
2018-12-19T12:10:29.940Z,28.98
2018-12-19T12:11:31.428Z,29.10
2018-12-19T12:12:33.796Z,29.65
2018-12-19T12:13:35.233Z,26.52
2018-12-19T12:14:36.780Z,26.30
2018-12-19T12:15:38.225Z,27.67
2018-12-19T12:16:39.660Z,28.87
2018-12-19T12:17:41.051Z,26.12
2018-12-19T12:18:42.460Z,26.25
2018-12-19T12:19:43.871Z,26.75
2018-12-19T12:20:45.277Z,25.77
2018-12-19T12:21:46.712Z,27.35
2018-12-19T12:22:48.092Z,25.82
2018-12-19T12:23:49.536Z,28.15
2018-12-19T12:24:50.944Z,28.50
2018-12-19T12:25:52.349Z,27.13
2018-12-19T12:26:53.777Z,29.42
2018-12-19T12:27:55.180Z,27.77
2018-12-19T12:28:56.693Z,27.95
2018-12-19T12:29:58.093Z,26.52
2018-12-19T12:30:59.520Z,29.00
2018-12-19T12:32:00.931Z,29.48
2018-12-19T12:33:02.288Z,28.75
2018-12-19T12:34:03.730Z,29.37
2018-12-19T12:35:10.396Z,29.30
2018-12-19T12:36:11.831Z,30.10
2018-12-19T12:37:13.297Z,29.65
2018-12-19T12:38:14.750Z,30.57
2018-12-19T12:39:16.215Z,28.77
2018-12-19T12:40:17.662Z,31.37
2018-12-19T12:41:19.033Z,29.87
2018-12-19T12:42:20.450Z,27.40
2018-12-19T12:43:21.885Z,27.27
2018-12-19T12:44:23.332Z,27.60
2018-12-19T12:45:24.806Z,27.42
2018-12-19T12:46:26.252Z,28.15
2018-12-19T12:47:27.648Z,27.35
2018-12-19T12:48:29.120Z,29.37
2018-12-19T12:49:30.521Z,27.42
2018-12-19T12:50:31.944Z,25.68
2018-12-19T12:51:33.330Z,26.05
2018-12-19T12:52:34.824Z,27.55
2018-12-19T12:53:36.344Z,29.65
2018-12-19T12:54:37.779Z,26.52
2018-12-19T12:55:39.220Z,24.65
2018-12-19T12:56:40.966Z,25.75
2018-12-19T12:57:42.512Z,26.25
2018-12-19T12:58:44.018Z,25.52
2018-12-19T12:59:45.469Z,24.50
2018-12-19T13:00:46.914Z,19.98
2018-12-19T13:01:48.347Z,21.30
2018-12-19T13:02:49.797Z,22.48
2018-12-19T13:04:58.953Z,23.22
2018-12-19T13:06:00.418Z,24.02
2018-12-19T13:07:01.816Z,24.27
2018-12-19T13:08:03.294Z,21.93
2018-12-19T13:09:04.749Z,23.20
2018-12-19T13:10:06.279Z,24.80
2018-12-19T13:11:07.694Z,23.27
2018-12-19T13:12:09.131Z,23.62
2018-12-19T13:13:10.549Z,23.90
2018-12-19T13:14:12.028Z,23.35
2018-12-19T13:15:13.628Z,24.43
2018-12-19T13:16:15.028Z,24.40
2018-12-19T13:17:16.495Z,22.32
2018-12-19T13:18:17.978Z,23.95